CheckWX is a tool to help pilots better visualize weather data.  It is not intended as a substitute for an official pre-flight weather briefing.

14:57:13 UTC

LDOS METAR
Osijek Airport
Osijek, Croatia
Current

27 mins ago

LDOS 221430Z 14009KT CAVOK 12/07 Q1015
Observed
Nov-22 @ 14:30 UTC
Wind
  • 140° at 9 KTS
Visibility
10,000+ meters
Flight Rules
VFR
Cloud Levels
  • Clear skies
Temperature
12°C / 54°F
Dewpoint
C / 45°F
Humidity
72%
Altimeter
29.97" Hg
Pressure
1014.92 hPa
Previous

57 mins ago

LDOS 221400Z 12011KT CAVOK 12/07 Q1015
Observed
Nov-22 @ 14:00 UTC
Wind
  • 120° at 11 KTS
Visibility
10,000+ meters
Flight Rules
VFR
Cloud Levels
  • Clear skies
Temperature
12°C / 54°F
Dewpoint
C / 45°F
Humidity
72%
Altimeter
29.97" Hg
Pressure
1014.92 hPa
Previous

1 hour ago

LDOS 221330Z 12010KT CAVOK 13/08 Q1015
Observed
Nov-22 @ 13:30 UTC
Wind
  • 120° at 10 KTS
Visibility
10,000+ meters
Flight Rules
VFR
Cloud Levels
  • Clear skies
Temperature
13°C / 55°F
Dewpoint
C / 46°F
Humidity
72%
Altimeter
29.97" Hg
Pressure
1014.92 hPa